Terminal Aerodrome Forecast
Issued by NWS

Home | Current Version | Previous Version | Text Only | Print | Product List | Glossary On
Versions: 1 2 3 4 5 6 7 8 9 10 11 12 13 14 15 16 17 18 19
000
FTUS43 KPAH 262339
TAFCGI
TAF
KCGI 262339Z 2700/2724 21006KT P6SM FEW070 BKN300
     FM270830 24006KT P6SM BKN060
      TEMPO 2710/2714 VRB04KT -TSRA BKN040CB OVC150
     FM271400 21005KT P6SM VCSH FEW012 BKN150
     FM271900 18005KT P6SM FEW018 SCT070 BKN150
      TEMPO 2721/2724 -TSRA BKN070CB=

USA.gov is the U.S. government's official web portal to all federal, state and local government web resources and services.